createdAt,value
2022-11-25T00:01:03.128Z,24.60
2022-11-25T00:03:29.592Z,25.50
2022-11-25T00:05:56.094Z,22.10
2022-11-25T00:08:22.629Z,22.40
2022-11-25T00:10:49.064Z,25.10
2022-11-25T00:13:15.496Z,25.20
2022-11-25T00:15:42.340Z,25.60
2022-11-25T00:18:08.772Z,22.40
2022-11-25T00:20:36.539Z,17.60
2022-11-25T00:23:03.175Z,23.80
2022-11-25T00:25:29.541Z,21.10
2022-11-25T00:27:55.866Z,22.60
2022-11-25T00:30:24.010Z,25.10
2022-11-25T00:32:50.391Z,23.30
2022-11-25T00:35:16.774Z,23.00
2022-11-25T00:37:43.172Z,22.50
2022-11-25T00:40:10.028Z,23.20
2022-11-25T00:42:55.223Z,24.80
2022-11-25T00:45:22.553Z,24.70
2022-11-25T00:47:49.012Z,25.20
2022-11-25T00:50:17.812Z,25.60
2022-11-25T00:52:44.292Z,24.20
2022-11-25T00:55:11.919Z,23.00
2022-11-25T00:57:38.325Z,22.80
2022-11-25T01:00:05.783Z,20.70
2022-11-25T01:02:32.242Z,25.10
2022-11-25T01:04:58.828Z,20.20
2022-11-25T01:07:25.237Z,20.20
2022-11-25T01:09:51.823Z,24.30
2022-11-25T01:12:18.326Z,25.20
2022-11-25T01:14:44.799Z,22.90
2022-11-25T01:17:13.738Z,21.90
2022-11-25T01:19:41.444Z,23.80
2022-11-25T01:22:07.981Z,22.60
2022-11-25T01:24:35.060Z,19.60
2022-11-25T01:27:01.692Z,21.70
2022-11-25T01:29:28.153Z,21.70
2022-11-25T01:31:55.991Z,22.20
2022-11-25T01:34:23.934Z,21.50
2022-11-25T01:36:50.459Z,20.90
2022-11-25T01:39:18.135Z,21.30
2022-11-25T01:41:44.712Z,21.40
2022-11-25T01:44:16.139Z,22.90
2022-11-25T01:46:48.592Z,22.00
2022-11-25T01:49:32.869Z,23.80
2022-11-25T01:52:02.146Z,22.10
2022-11-25T01:54:30.610Z,22.80
2022-11-25T01:57:00.125Z,21.30
2022-11-25T01:59:27.223Z,21.70
2022-11-25T02:01:54.191Z,26.20
2022-11-25T02:04:22.088Z,25.20
2022-11-25T02:06:54.837Z,25.50
2022-11-25T02:09:21.819Z,25.70
2022-11-25T02:11:48.579Z,32.80
2022-11-25T02:14:16.362Z,31.50
2022-11-25T02:16:42.935Z,28.80
2022-11-25T02:19:15.729Z,25.10
2022-11-25T02:21:45.249Z,24.50
2022-11-25T02:24:23.586Z,23.80
2022-11-25T02:26:49.966Z,23.60
2022-11-25T02:29:16.341Z,24.60
2022-11-25T02:31:43.549Z,25.30
2022-11-25T02:34:10.421Z,26.50
2022-11-25T02:36:36.815Z,26.60
2022-11-25T02:39:03.727Z,26.40
2022-11-25T02:41:47.330Z,24.50
2022-11-25T02:44:13.969Z,22.10
2022-11-25T02:46:40.451Z,23.90
2022-11-25T02:49:09.429Z,22.50
2022-11-25T02:51:37.575Z,23.80
2022-11-25T02:54:04.146Z,24.90
2022-11-25T02:56:33.408Z,23.80
2022-11-25T02:59:00.475Z,23.40
2022-11-25T03:01:28.036Z,23.90
2022-11-25T03:03:54.549Z,23.40
2022-11-25T03:06:21.082Z,23.20
2022-11-25T03:08:47.558Z,23.50
2022-11-25T03:11:14.009Z,22.70
2022-11-25T03:13:40.586Z,19.90
2022-11-25T03:16:08.272Z,21.30
2022-11-25T03:18:34.783Z,22.10
2022-11-25T03:21:01.544Z,21.50
2022-11-25T03:23:28.181Z,22.00
2022-11-25T03:25:55.853Z,19.90
2022-11-25T03:28:22.977Z,20.30
2022-11-25T03:30:49.614Z,23.80
2022-11-25T03:33:16.045Z,21.60
2022-11-25T03:35:42.990Z,21.50
2022-11-25T03:38:09.455Z,21.60
2022-11-25T03:40:36.799Z,18.30
2022-11-25T03:43:04.751Z,21.40
2022-11-25T03:45:31.207Z,22.10
2022-11-25T03:47:58.765Z,27.10
2022-11-25T03:50:25.740Z,22.60
2022-11-25T03:52:53.633Z,22.10
2022-11-25T03:55:20.400Z,24.00
2022-11-25T03:57:47.099Z,22.80
2022-11-25T04:00:13.876Z,23.70
2022-11-25T04:03:00.585Z,22.20
2022-11-25T04:05:27.256Z,21.10
2022-11-25T04:07:57.933Z,25.50
2022-11-25T04:10:24.786Z,25.50
2022-11-25T04:12:51.884Z,22.30
2022-11-25T04:15:21.425Z,25.80
2022-11-25T04:17:51.900Z,20.90
2022-11-25T04:20:19.028Z,26.20
2022-11-25T04:22:50.588Z,21.70
2022-11-25T04:25:17.628Z,22.10
2022-11-25T04:27:44.369Z,21.60
2022-11-25T04:30:11.726Z,17.80
2022-11-25T04:32:40.055Z,20.30
2022-11-25T04:35:07.457Z,37.40
2022-11-25T04:37:34.504Z,32.70
2022-11-25T04:40:00.936Z,26.20
2022-11-25T04:42:32.416Z,23.50
2022-11-25T04:45:22.089Z,22.00
2022-11-25T04:47:48.396Z,25.30
2022-11-25T04:50:16.251Z,25.90
2022-11-25T04:52:51.617Z,25.10
2022-11-25T04:55:18.159Z,24.40
2022-11-25T04:57:44.756Z,24.10
2022-11-25T05:00:12.319Z,20.00
2022-11-25T05:02:38.892Z,22.20
2022-11-25T05:05:11.232Z,24.30
2022-11-25T05:07:38.522Z,28.30
2022-11-25T05:10:05.853Z,25.40
2022-11-25T05:12:45.191Z,18.00
2022-11-25T05:15:15.417Z,18.30
2022-11-25T05:17:43.927Z,24.60
2022-11-25T05:20:10.801Z,23.00
2022-11-25T05:22:38.028Z,20.10
2022-11-25T05:25:05.750Z,21.70
2022-11-25T05:27:34.234Z,20.20
2022-11-25T05:30:04.473Z,21.10
2022-11-25T05:32:31.602Z,21.90
2022-11-25T05:34:58.755Z,21.50
2022-11-25T05:37:25.191Z,19.50
2022-11-25T05:39:57.949Z,20.10
2022-11-25T05:42:47.387Z,20.00
2022-11-25T05:45:13.717Z,19.30
2022-11-25T05:47:40.167Z,21.30
2022-11-25T05:50:07.458Z,19.10
2022-11-25T05:52:34.103Z,20.60
2022-11-25T05:55:01.143Z,19.20
2022-11-25T05:57:28.551Z,17.50
2022-11-25T06:00:07.959Z,20.30
2022-11-25T06:02:44.900Z,22.70
2022-11-25T06:05:13.262Z,26.80
2022-11-25T06:07:39.906Z,22.90
2022-11-25T06:10:07.396Z,22.70
2022-11-25T06:12:35.191Z,23.70
2022-11-25T06:15:01.695Z,20.80
2022-11-25T06:17:28.433Z,18.80
2022-11-25T06:20:15.344Z,17.60
2022-11-25T06:22:42.087Z,16.50
2022-11-25T06:25:08.647Z,16.90
2022-11-25T06:28:04.646Z,17.00
2022-11-25T06:39:35.737Z,15.60
2022-11-25T06:42:02.200Z,15.20
2022-11-25T06:44:28.558Z,14.40
2022-11-25T06:46:56.428Z,10.70
2022-11-25T06:49:22.914Z,16.10
2022-11-25T06:51:49.864Z,13.30
2022-11-25T06:54:16.769Z,14.30
2022-11-25T06:56:43.160Z,18.10
2022-11-25T06:59:09.576Z,20.40
2022-11-25T07:01:36.238Z,16.60
2022-11-25T07:04:04.125Z,14.90
2022-11-25T07:06:31.363Z,14.90
2022-11-25T07:08:58.180Z,14.80
2022-11-25T07:11:25.937Z,17.50
2022-11-25T07:13:53.902Z,17.10
2022-11-25T07:16:20.592Z,19.30
2022-11-25T07:18:47.072Z,18.50
2022-11-25T07:21:21.188Z,18.00
2022-11-25T07:23:48.133Z,14.10
2022-11-25T07:26:16.511Z,14.90
2022-11-25T07:28:43.644Z,21.40
2022-11-25T07:31:23.899Z,19.40
2022-11-25T07:33:52.873Z,20.40
2022-11-25T07:36:19.652Z,21.90
2022-11-25T07:38:46.919Z,20.40
2022-11-25T07:41:15.284Z,21.20
2022-11-25T07:43:45.609Z,20.40
2022-11-25T07:46:12.907Z,17.40
2022-11-25T07:48:40.040Z,13.30
2022-11-25T07:51:32.911Z,12.50
2022-11-25T07:54:00.458Z,12.80
2022-11-25T07:56:27.478Z,13.40
2022-11-25T07:58:54.516Z,13.20
2022-11-25T08:01:21.316Z,13.80
2022-11-25T08:03:48.407Z,16.70
2022-11-25T08:06:16.702Z,15.30
2022-11-25T08:08:43.471Z,14.90
2022-11-25T08:11:11.503Z,12.70
2022-11-25T08:13:38.132Z,13.10
2022-11-25T08:16:05.141Z,30.00
2022-11-25T08:18:32.024Z,27.20
2022-11-25T08:21:04.190Z,32.10
2022-11-25T08:23:32.286Z,31.20
2022-11-25T08:26:09.903Z,27.30
2022-11-25T08:28:36.909Z,20.50
2022-11-25T08:31:08.105Z,27.70
2022-11-25T08:36:00.887Z,22.70
2022-11-25T08:38:27.988Z,20.30
2022-11-25T08:40:55.114Z,21.10
2022-11-25T08:43:26.373Z,25.40
2022-11-25T08:45:55.876Z,29.10
2022-11-25T08:48:22.292Z,26.50
2022-11-25T08:50:50.383Z,22.10
2022-11-25T08:53:16.902Z,20.80
2022-11-25T08:55:43.675Z,15.60
2022-11-25T08:58:12.450Z,12.90
2022-11-25T09:00:39.691Z,17.70
2022-11-25T09:03:06.400Z,17.70
2022-11-25T09:05:36.435Z,27.20
2022-11-25T09:08:03.867Z,23.40
2022-11-25T09:10:30.743Z,23.70
2022-11-25T09:12:57.378Z,22.90
2022-11-25T09:15:23.792Z,22.20
2022-11-25T09:17:57.163Z,16.20
2022-11-25T09:20:23.640Z,19.40
2022-11-25T09:22:50.120Z,21.20
2022-11-25T09:25:16.574Z,18.70
2022-11-25T09:27:43.046Z,23.80
2022-11-25T09:30:09.824Z,40.10
2022-11-25T09:32:36.335Z,29.10
2022-11-25T09:35:03.164Z,16.10
2022-11-25T09:37:29.519Z,25.40
2022-11-25T09:39:56.276Z,24.20
2022-11-25T09:42:47.908Z,23.90
2022-11-25T09:45:42.559Z,19.40
2022-11-25T09:48:08.930Z,22.60
2022-11-25T09:51:00.711Z,21.60
2022-11-25T09:53:33.390Z,19.10
2022-11-25T09:56:02.410Z,19.90
2022-11-25T09:58:36.946Z,20.90
2022-11-25T10:01:11.636Z,18.20
2022-11-25T10:03:38.203Z,20.40
2022-11-25T10:06:10.821Z,19.30
2022-11-25T10:08:38.987Z,21.50
2022-11-25T10:11:21.203Z,21.00
2022-11-25T10:13:52.213Z,17.90
2022-11-25T10:16:43.974Z,18.90
2022-11-25T10:19:25.784Z,19.40
2022-11-25T10:21:52.228Z,19.50
2022-11-25T10:24:20.671Z,17.30
2022-11-25T10:26:57.548Z,16.40
2022-11-25T10:29:29.335Z,14.00
2022-11-25T10:32:05.028Z,15.30
2022-11-25T10:34:35.758Z,19.10
2022-11-25T10:37:04.813Z,16.30
2022-11-25T10:39:33.300Z,23.50
2022-11-25T10:42:04.025Z,17.80
2022-11-25T10:44:34.136Z,13.60
2022-11-25T10:47:19.861Z,15.30
2022-11-25T10:50:05.541Z,33.80
2022-11-25T10:52:34.715Z,10.50
2022-11-25T10:55:09.151Z,15.10
2022-11-25T10:57:35.718Z,16.90
2022-11-25T11:00:04.034Z,20.50
2022-11-25T11:02:37.381Z,16.40
2022-11-25T11:05:07.053Z,14.30
2022-11-25T11:07:38.068Z,12.20
2022-11-25T11:10:13.851Z,15.30
2022-11-25T11:12:54.140Z,13.40
2022-11-25T11:15:22.480Z,16.00
2022-11-25T11:17:49.329Z,16.70
2022-11-25T11:20:20.879Z,22.30
2022-11-25T11:23:04.154Z,13.60
2022-11-25T11:25:35.385Z,13.30
2022-11-25T11:28:02.724Z,12.60
2022-11-25T11:30:30.597Z,18.50
2022-11-25T11:33:03.020Z,13.90
2022-11-25T11:35:44.882Z,14.30
2022-11-25T11:38:23.717Z,13.60
2022-11-25T11:40:53.387Z,13.10
2022-11-25T11:43:38.493Z,17.10
2022-11-25T11:46:10.945Z,20.10
2022-11-25T11:48:45.383Z,16.50
2022-11-25T11:51:32.457Z,16.40
2022-11-25T11:54:15.787Z,12.90
2022-11-25T11:57:14.988Z,13.20
2022-11-25T11:59:48.314Z,18.40
2022-11-25T12:02:14.755Z,13.20
2022-11-25T12:04:41.248Z,11.90
2022-11-25T12:07:18.051Z,11.20
2022-11-25T12:09:49.554Z,11.00
2022-11-25T12:15:17.288Z,12.40
2022-11-25T12:17:48.099Z,12.10
2022-11-25T12:20:25.625Z,14.20
2022-11-25T12:22:57.267Z,12.80
2022-11-25T12:25:26.493Z,14.40
2022-11-25T12:28:08.614Z,12.40
2022-11-25T12:33:58.264Z,13.50
2022-11-25T12:36:35.436Z,14.00
2022-11-25T12:39:13.046Z,13.10
2022-11-25T12:41:58.502Z,11.60
2022-11-25T12:44:30.897Z,11.60
2022-11-25T12:46:57.752Z,14.90
2022-11-25T12:49:25.839Z,14.60
2022-11-25T12:51:55.292Z,11.60
2022-11-25T12:54:32.191Z,16.30
2022-11-25T12:57:08.022Z,14.40
2022-11-25T13:00:06.074Z,13.10
2022-11-25T13:02:51.672Z,27.30
2022-11-25T13:05:39.952Z,30.10
2022-11-25T13:08:10.272Z,12.80
2022-11-25T13:10:43.135Z,12.30
2022-11-25T13:13:22.148Z,12.50
2022-11-25T13:15:51.409Z,10.90
2022-11-25T13:18:20.462Z,12.70
2022-11-25T13:20:48.337Z,19.60
2022-11-25T13:23:17.563Z,13.30
2022-11-25T13:25:45.193Z,11.30
2022-11-25T13:28:44.895Z,11.20
2022-11-25T13:31:22.843Z,19.70
2022-11-25T13:33:49.538Z,13.20
2022-11-25T13:36:16.009Z,13.40
2022-11-25T13:38:49.108Z,12.90
2022-11-25T13:41:15.717Z,35.30
2022-11-25T13:43:56.659Z,13.00
2022-11-25T13:46:37.557Z,12.60
2022-11-25T13:49:05.376Z,9.30
2022-11-25T13:51:31.951Z,14.70
2022-11-25T13:54:00.228Z,15.20
2022-11-25T13:56:36.113Z,13.60
2022-11-25T13:59:11.837Z,11.00
2022-11-25T14:01:39.848Z,9.10
2022-11-25T14:04:11.454Z,7.80
2022-11-25T14:06:51.939Z,8.90
2022-11-25T14:09:21.317Z,7.30
2022-11-25T14:11:47.723Z,10.10
2022-11-25T14:14:26.278Z,10.80
2022-11-25T14:16:52.652Z,10.80
2022-11-25T14:22:17.717Z,17.50
2022-11-25T14:24:45.414Z,13.10
2022-11-25T14:27:16.529Z,16.50
2022-11-25T14:29:45.781Z,10.00
2022-11-25T14:32:20.188Z,18.20
2022-11-25T14:34:56.853Z,15.70
2022-11-25T14:37:27.460Z,16.50
2022-11-25T14:40:08.379Z,13.80
2022-11-25T14:42:36.919Z,14.40
2022-11-25T14:45:18.844Z,12.20
2022-11-25T14:47:45.260Z,19.10
2022-11-25T14:53:05.476Z,18.50
2022-11-25T14:55:31.833Z,15.30
2022-11-25T14:57:58.323Z,14.10
2022-11-25T15:00:24.918Z,14.80
2022-11-25T15:03:02.165Z,16.90
2022-11-25T15:05:34.192Z,19.90
2022-11-25T15:08:02.617Z,15.70
2022-11-25T15:10:33.570Z,19.60
2022-11-25T15:13:00.556Z,29.30
2022-11-25T15:15:27.196Z,22.10
2022-11-25T15:17:54.675Z,23.10
2022-11-25T15:20:22.619Z,24.10
2022-11-25T15:22:50.422Z,25.70
2022-11-25T17:09:34.425Z,18.60
2022-11-25T17:12:33.641Z,21.40
2022-11-25T17:15:06.654Z,22.70
2022-11-25T17:17:33.593Z,30.50
2022-11-25T17:20:00.205Z,27.80
2022-11-25T17:22:27.909Z,27.40
2022-11-25T17:24:54.336Z,31.30
2022-11-25T17:27:28.954Z,26.30
2022-11-25T17:29:56.498Z,25.10
2022-11-25T17:32:23.276Z,21.50
2022-11-25T17:34:49.925Z,19.10
2022-11-25T17:37:22.441Z,17.70
2022-11-25T17:39:49.425Z,20.60
2022-11-25T17:42:16.849Z,17.90
2022-11-25T17:44:47.542Z,19.10
2022-11-25T17:47:16.940Z,15.50
2022-11-25T17:49:45.276Z,19.50
2022-11-25T17:52:11.662Z,19.80
2022-11-25T17:54:38.910Z,18.10
2022-11-25T17:57:06.346Z,21.70
2022-11-25T17:59:33.336Z,19.60
2022-11-25T18:01:59.996Z,16.60
2022-11-25T18:04:36.081Z,16.70
2022-11-25T18:07:02.910Z,16.10
2022-11-25T18:09:29.635Z,21.90
2022-11-25T18:11:57.839Z,20.60
2022-11-25T18:14:29.661Z,18.20
2022-11-25T18:16:57.437Z,18.10
2022-11-25T18:19:23.969Z,16.50
2022-11-25T18:21:50.383Z,18.30
2022-11-25T18:24:16.915Z,19.80
2022-11-25T18:26:45.089Z,25.80
2022-11-25T18:29:13.780Z,24.60
2022-11-25T18:31:40.456Z,21.00
2022-11-25T18:34:14.004Z,25.30
2022-11-25T18:36:40.482Z,23.90
2022-11-25T18:39:09.546Z,21.90
2022-11-25T18:41:37.307Z,31.30
2022-11-25T18:44:04.570Z,36.60
2022-11-25T18:46:33.869Z,30.70
2022-11-25T18:49:00.240Z,34.80
2022-11-25T18:51:26.731Z,36.80
2022-11-25T18:53:53.102Z,41.50
2022-11-25T18:56:19.592Z,33.00
2022-11-25T18:58:49.199Z,30.90
2022-11-25T19:01:16.116Z,27.80
2022-11-25T19:03:42.691Z,32.80
2022-11-25T19:06:18.133Z,24.80
2022-11-25T19:08:44.867Z,27.90
2022-11-25T19:11:16.725Z,27.40
2022-11-25T19:13:48.458Z,23.90
2022-11-25T19:16:16.071Z,23.80
2022-11-25T19:18:43.914Z,30.80
2022-11-25T19:21:18.157Z,33.80
2022-11-25T19:23:44.836Z,33.60
2022-11-25T19:26:13.820Z,32.00
2022-11-25T19:28:40.942Z,37.90
2022-11-25T19:31:09.184Z,37.40
2022-11-25T19:33:37.063Z,39.40
2022-11-25T19:36:04.299Z,26.00
2022-11-25T19:38:32.293Z,28.50
2022-11-25T19:40:58.779Z,60.00
2022-11-25T19:43:28.193Z,102.50
2022-11-25T19:45:55.536Z,33.60
2022-11-25T19:48:24.282Z,50.20
2022-11-25T19:50:58.886Z,44.60
2022-11-25T19:53:30.186Z,26.60
2022-11-25T19:56:03.240Z,28.40
2022-11-25T19:58:29.746Z,20.40
2022-11-25T20:00:56.534Z,19.40
2022-11-25T20:03:24.857Z,17.60
2022-11-25T20:05:52.543Z,16.10
2022-11-25T20:08:22.469Z,12.80
2022-11-25T20:10:49.534Z,15.30
2022-11-25T20:13:15.998Z,13.30
2022-11-25T20:15:43.174Z,11.50
2022-11-25T20:18:17.917Z,12.90
2022-11-25T20:20:46.589Z,13.50
2022-11-25T20:23:15.592Z,17.00
2022-11-25T20:25:43.395Z,21.40
2022-11-25T20:28:26.880Z,19.80
2022-11-25T20:30:53.452Z,24.50
2022-11-25T20:33:24.246Z,21.60
2022-11-25T20:38:18.957Z,20.10
2022-11-25T20:40:47.662Z,18.90
2022-11-25T20:43:29.251Z,18.50
2022-11-25T20:45:56.138Z,17.70
2022-11-25T20:48:23.248Z,15.70
2022-11-25T20:50:49.824Z,19.90
2022-11-25T20:53:17.342Z,20.40
2022-11-25T20:55:44.826Z,21.60
2022-11-25T20:58:19.510Z,18.90
2022-11-25T21:00:46.337Z,20.90
2022-11-25T21:03:12.789Z,21.90
2022-11-25T21:05:39.496Z,21.00
2022-11-25T21:08:12.121Z,18.70
2022-11-25T21:10:38.838Z,21.70
2022-11-25T21:13:10.313Z,21.30
2022-11-25T21:15:36.733Z,17.50
2022-11-25T21:18:03.257Z,17.70
2022-11-25T21:20:29.998Z,23.40
2022-11-25T21:23:04.891Z,23.10
2022-11-25T21:25:32.285Z,24.60
2022-11-25T21:27:59.230Z,20.00
2022-11-25T21:30:27.197Z,22.40
2022-11-25T21:32:55.189Z,23.80
2022-11-25T21:35:22.421Z,24.90
2022-11-25T21:37:48.855Z,23.00
2022-11-25T21:40:21.475Z,20.80
2022-11-25T21:42:48.067Z,18.80
2022-11-25T21:45:17.817Z,21.70
2022-11-25T21:47:44.416Z,18.70
2022-11-25T21:50:14.962Z,28.10
2022-11-25T21:52:41.378Z,22.60
2022-11-25T21:55:09.489Z,21.90
2022-11-25T21:57:35.920Z,19.40
2022-11-25T22:00:03.238Z,21.70
2022-11-25T22:02:32.053Z,26.70
2022-11-25T22:04:58.894Z,24.30
2022-11-25T22:07:30.592Z,28.70
2022-11-25T22:09:57.570Z,43.70
2022-11-25T22:12:28.136Z,34.30
2022-11-25T22:14:55.936Z,30.90
2022-11-25T22:17:22.412Z,30.50
2022-11-25T22:19:48.936Z,25.90
2022-11-25T22:22:15.985Z,24.30
2022-11-25T22:24:42.555Z,21.40
2022-11-25T22:27:18.080Z,18.40
2022-11-25T22:29:44.522Z,19.00
2022-11-25T22:32:13.317Z,16.10
2022-11-25T22:34:40.113Z,16.60
2022-11-25T22:37:24.682Z,18.10
2022-11-25T22:39:51.028Z,16.20
2022-11-25T22:42:23.459Z,18.20
2022-11-25T22:44:50.231Z,19.10
2022-11-25T22:47:22.607Z,17.60
2022-11-25T22:49:49.551Z,13.40
2022-11-25T22:52:22.231Z,13.70
2022-11-25T22:54:49.075Z,13.00
2022-11-25T22:57:15.689Z,12.00
2022-11-25T22:59:42.655Z,13.40
2022-11-25T23:02:14.590Z,11.10
2022-11-25T23:04:41.176Z,11.30
2022-11-25T23:07:19.011Z,11.10
2022-11-25T23:09:45.386Z,10.90
2022-11-25T23:12:15.315Z,13.10
2022-11-25T23:20:50.684Z,13.90
2022-11-25T23:23:41.795Z,14.50
2022-11-25T23:26:12.349Z,13.70
2022-11-25T23:28:39.625Z,13.90
2022-11-25T23:31:06.067Z,13.90
2022-11-25T23:33:37.870Z,13.70
2022-11-25T23:36:12.515Z,14.30
2022-11-25T23:38:44.285Z,14.80
2022-11-25T23:41:24.677Z,15.50
2022-11-25T23:43:51.611Z,14.90
2022-11-25T23:46:20.215Z,12.20
2022-11-25T23:48:56.238Z,13.00
2022-11-25T23:51:23.763Z,14.40
2022-11-25T23:53:51.013Z,14.20
2022-11-25T23:56:17.960Z,13.00
2022-11-25T23:58:44.497Z,14.60
